Aviation Digital Data Service (ADDS)

Output produced by TAFs form (0937 UTC 18 September 2014)
found at http://aviationweather.gov/adds/tafs/
 
KABQ 180528Z 1806/1906 12005KT P6SM FEW030 BKN120 
     FM181100 06005KT P6SM SCT025 SCT150 
     FM181500 06005KT P6SM BKN080 
     FM181800 12010G20KT P6SM BKN050 
     FM182300 12010G20KT P6SM VCSH SCT025 OVC040 
     FM190300 12010KT P6SM SCT025 OVC040